sensor_id;sensor_type;location;lat;lon;timestamp;P1;durP1;ratioP1;P2;durP2;ratioP2
6282;SDS011;3174;53.486;9.568;2022-12-01T00:01:11;46.63;;;19.33;;
6282;SDS011;3174;53.486;9.568;2022-12-01T00:03:40;42.63;;;20.03;;
6282;SDS011;3174;53.486;9.568;2022-12-01T00:06:10;40.97;;;18.77;;
6282;SDS011;3174;53.486;9.568;2022-12-01T00:08:40;47.90;;;20.60;;
6282;SDS011;3174;53.486;9.568;2022-12-01T00:11:32;41.23;;;18.13;;
6282;SDS011;3174;53.486;9.568;2022-12-01T00:14:00;47.40;;;20.90;;
6282;SDS011;3174;53.486;9.568;2022-12-01T00:16:28;39.63;;;17.50;;
6282;SDS011;3174;53.486;9.568;2022-12-01T00:18:57;40.40;;;18.60;;
6282;SDS011;3174;53.486;9.568;2022-12-01T00:21:25;43.17;;;19.63;;
6282;SDS011;3174;53.486;9.568;2022-12-01T00:23:54;45.10;;;19.77;;
6282;SDS011;3174;53.486;9.568;2022-12-01T00:26:24;39.27;;;17.93;;
6282;SDS011;3174;53.486;9.568;2022-12-01T00:28:54;39.10;;;18.53;;
6282;SDS011;3174;53.486;9.568;2022-12-01T00:31:23;54.80;;;23.67;;
6282;SDS011;3174;53.486;9.568;2022-12-01T00:33:52;41.83;;;18.57;;
6282;SDS011;3174;53.486;9.568;2022-12-01T00:36:20;41.67;;;18.73;;
6282;SDS011;3174;53.486;9.568;2022-12-01T00:38:50;44.90;;;20.07;;
6282;SDS011;3174;53.486;9.568;2022-12-01T00:41:18;41.00;;;18.40;;
6282;SDS011;3174;53.486;9.568;2022-12-01T00:43:46;52.63;;;22.10;;
6282;SDS011;3174;53.486;9.568;2022-12-01T00:46:15;39.43;;;18.57;;
6282;SDS011;3174;53.486;9.568;2022-12-01T00:48:44;43.53;;;18.93;;
6282;SDS011;3174;53.486;9.568;2022-12-01T00:51:11;45.97;;;19.43;;
6282;SDS011;3174;53.486;9.568;2022-12-01T00:53:39;39.00;;;19.07;;
6282;SDS011;3174;53.486;9.568;2022-12-01T00:56:07;47.30;;;19.90;;
6282;SDS011;3174;53.486;9.568;2022-12-01T00:58:35;43.70;;;18.57;;
6282;SDS011;3174;53.486;9.568;2022-12-01T01:01:03;42.50;;;19.17;;
6282;SDS011;3174;53.486;9.568;2022-12-01T01:03:33;38.17;;;17.50;;
6282;SDS011;3174;53.486;9.568;2022-12-01T01:06:05;45.17;;;19.07;;
6282;SDS011;3174;53.486;9.568;2022-12-01T01:08:33;39.23;;;17.50;;
6282;SDS011;3174;53.486;9.568;2022-12-01T01:11:02;43.57;;;18.53;;
6282;SDS011;3174;53.486;9.568;2022-12-01T01:13:30;41.50;;;19.10;;
6282;SDS011;3174;53.486;9.568;2022-12-01T01:15:59;44.80;;;18.80;;
6282;SDS011;3174;53.486;9.568;2022-12-01T01:18:29;42.40;;;18.97;;
6282;SDS011;3174;53.486;9.568;2022-12-01T01:20:59;42.47;;;18.67;;
6282;SDS011;3174;53.486;9.568;2022-12-01T01:23:28;45.07;;;18.50;;
6282;SDS011;3174;53.486;9.568;2022-12-01T01:25:59;42.77;;;19.20;;
6282;SDS011;3174;53.486;9.568;2022-12-01T01:28:28;39.57;;;19.10;;
6282;SDS011;3174;53.486;9.568;2022-12-01T01:30:57;41.37;;;18.83;;
6282;SDS011;3174;53.486;9.568;2022-12-01T01:33:25;38.07;;;17.70;;
6282;SDS011;3174;53.486;9.568;2022-12-01T01:35:53;41.90;;;18.63;;
6282;SDS011;3174;53.486;9.568;2022-12-01T01:38:26;35.37;;;17.97;;
6282;SDS011;3174;53.486;9.568;2022-12-01T01:40:54;43.47;;;18.67;;
6282;SDS011;3174;53.486;9.568;2022-12-01T01:43:36;37.37;;;17.13;;
6282;SDS011;3174;53.486;9.568;2022-12-01T01:46:06;42.73;;;19.70;;
6282;SDS011;3174;53.486;9.568;2022-12-01T01:48:35;44.43;;;18.03;;
6282;SDS011;3174;53.486;9.568;2022-12-01T01:51:04;43.43;;;18.37;;
6282;SDS011;3174;53.486;9.568;2022-12-01T01:53:32;46.87;;;19.37;;
6282;SDS011;3174;53.486;9.568;2022-12-01T01:56:00;42.63;;;17.93;;
6282;SDS011;3174;53.486;9.568;2022-12-01T01:58:29;34.43;;;18.53;;
6282;SDS011;3174;53.486;9.568;2022-12-01T02:00:58;45.20;;;19.13;;
6282;SDS011;3174;53.486;9.568;2022-12-01T02:03:26;49.10;;;21.43;;
6282;SDS011;3174;53.486;9.568;2022-12-01T02:05:54;39.50;;;19.27;;
6282;SDS011;3174;53.486;9.568;2022-12-01T02:08:31;37.20;;;17.13;;
6282;SDS011;3174;53.486;9.568;2022-12-01T02:11:03;34.27;;;17.07;;
6282;SDS011;3174;53.486;9.568;2022-12-01T02:13:56;38.47;;;17.13;;
6282;SDS011;3174;53.486;9.568;2022-12-01T02:16:34;40.53;;;18.37;;
6282;SDS011;3174;53.486;9.568;2022-12-01T02:19:10;37.60;;;18.23;;
6282;SDS011;3174;53.486;9.568;2022-12-01T02:21:53;37.67;;;17.90;;
6282;SDS011;3174;53.486;9.568;2022-12-01T02:27:44;35.70;;;16.40;;
6282;SDS011;3174;53.486;9.568;2022-12-01T02:30:32;33.90;;;16.63;;
6282;SDS011;3174;53.486;9.568;2022-12-01T02:33:04;37.93;;;16.63;;
6282;SDS011;3174;53.486;9.568;2022-12-01T02:35:35;42.77;;;18.33;;
6282;SDS011;3174;53.486;9.568;2022-12-01T02:38:08;43.57;;;18.43;;
6282;SDS011;3174;53.486;9.568;2022-12-01T02:40:40;44.97;;;17.83;;
6282;SDS011;3174;53.486;9.568;2022-12-01T02:43:14;38.53;;;16.30;;
6282;SDS011;3174;53.486;9.568;2022-12-01T02:45:48;42.67;;;19.30;;
6282;SDS011;3174;53.486;9.568;2022-12-01T02:48:19;41.97;;;18.93;;
6282;SDS011;3174;53.486;9.568;2022-12-01T02:50:51;37.80;;;17.67;;
6282;SDS011;3174;53.486;9.568;2022-12-01T02:53:20;36.93;;;17.20;;
6282;SDS011;3174;53.486;9.568;2022-12-01T02:55:49;39.57;;;17.43;;
6282;SDS011;3174;53.486;9.568;2022-12-01T02:58:18;41.13;;;20.20;;
6282;SDS011;3174;53.486;9.568;2022-12-01T03:00:57;38.53;;;16.80;;
6282;SDS011;3174;53.486;9.568;2022-12-01T03:03:37;46.33;;;20.00;;
6282;SDS011;3174;53.486;9.568;2022-12-01T03:06:13;33.93;;;16.87;;
6282;SDS011;3174;53.486;9.568;2022-12-01T03:08:49;41.80;;;18.03;;
6282;SDS011;3174;53.486;9.568;2022-12-01T03:11:23;43.63;;;18.17;;
6282;SDS011;3174;53.486;9.568;2022-12-01T03:13:56;44.20;;;18.57;;
6282;SDS011;3174;53.486;9.568;2022-12-01T03:16:37;37.50;;;19.07;;
6282;SDS011;3174;53.486;9.568;2022-12-01T03:19:09;43.77;;;20.10;;
6282;SDS011;3174;53.486;9.568;2022-12-01T03:21:41;48.30;;;20.47;;
6282;SDS011;3174;53.486;9.568;2022-12-01T03:24:11;35.77;;;17.30;;
6282;SDS011;3174;53.486;9.568;2022-12-01T03:26:42;36.80;;;17.53;;
6282;SDS011;3174;53.486;9.568;2022-12-01T03:29:13;40.03;;;17.50;;
6282;SDS011;3174;53.486;9.568;2022-12-01T03:31:44;45.70;;;18.67;;
6282;SDS011;3174;53.486;9.568;2022-12-01T03:34:15;39.80;;;18.40;;
6282;SDS011;3174;53.486;9.568;2022-12-01T03:36:49;39.20;;;17.63;;
6282;SDS011;3174;53.486;9.568;2022-12-01T03:39:19;39.83;;;18.17;;
6282;SDS011;3174;53.486;9.568;2022-12-01T03:41:51;39.00;;;18.43;;
6282;SDS011;3174;53.486;9.568;2022-12-01T03:44:24;40.50;;;16.93;;
6282;SDS011;3174;53.486;9.568;2022-12-01T03:46:58;41.27;;;16.83;;
6282;SDS011;3174;53.486;9.568;2022-12-01T03:49:27;43.87;;;17.87;;
6282;SDS011;3174;53.486;9.568;2022-12-01T03:51:58;39.17;;;18.50;;
6282;SDS011;3174;53.486;9.568;2022-12-01T03:54:37;38.60;;;18.30;;
6282;SDS011;3174;53.486;9.568;2022-12-01T03:57:12;40.73;;;17.63;;
6282;SDS011;3174;53.486;9.568;2022-12-01T03:59:41;41.47;;;17.07;;
6282;SDS011;3174;53.486;9.568;2022-12-01T04:02:12;45.40;;;18.73;;
6282;SDS011;3174;53.486;9.568;2022-12-01T04:04:40;38.83;;;17.97;;
6282;SDS011;3174;53.486;9.568;2022-12-01T04:07:08;38.60;;;18.87;;
6282;SDS011;3174;53.486;9.568;2022-12-01T04:09:38;45.00;;;18.47;;
6282;SDS011;3174;53.486;9.568;2022-12-01T04:12:08;41.33;;;18.10;;
6282;SDS011;3174;53.486;9.568;2022-12-01T04:14:59;43.43;;;18.47;;
6282;SDS011;3174;53.486;9.568;2022-12-01T04:17:29;37.07;;;17.10;;
6282;SDS011;3174;53.486;9.568;2022-12-01T04:19:57;44.03;;;18.60;;
6282;SDS011;3174;53.486;9.568;2022-12-01T04:22:26;40.20;;;18.10;;
6282;SDS011;3174;53.486;9.568;2022-12-01T04:24:54;41.87;;;18.43;;
6282;SDS011;3174;53.486;9.568;2022-12-01T04:27:22;42.27;;;18.47;;
6282;SDS011;3174;53.486;9.568;2022-12-01T04:29:50;43.20;;;19.07;;
6282;SDS011;3174;53.486;9.568;2022-12-01T04:32:17;40.77;;;18.67;;
6282;SDS011;3174;53.486;9.568;2022-12-01T04:34:47;46.57;;;19.43;;
6282;SDS011;3174;53.486;9.568;2022-12-01T04:37:15;41.93;;;18.27;;
6282;SDS011;3174;53.486;9.568;2022-12-01T04:39:43;41.07;;;18.33;;
6282;SDS011;3174;53.486;9.568;2022-12-01T04:42:11;42.87;;;18.80;;
6282;SDS011;3174;53.486;9.568;2022-12-01T04:44:39;39.33;;;17.30;;
6282;SDS011;3174;53.486;9.568;2022-12-01T04:47:07;44.37;;;19.50;;
6282;SDS011;3174;53.486;9.568;2022-12-01T04:49:35;44.30;;;19.97;;
6282;SDS011;3174;53.486;9.568;2022-12-01T04:52:05;44.47;;;18.07;;
6282;SDS011;3174;53.486;9.568;2022-12-01T04:54:33;37.20;;;17.20;;
6282;SDS011;3174;53.486;9.568;2022-12-01T04:57:01;39.13;;;18.00;;
6282;SDS011;3174;53.486;9.568;2022-12-01T04:59:29;43.33;;;16.77;;
6282;SDS011;3174;53.486;9.568;2022-12-01T05:01:57;38.50;;;18.93;;
6282;SDS011;3174;53.486;9.568;2022-12-01T05:04:24;42.57;;;19.10;;
6282;SDS011;3174;53.486;9.568;2022-12-01T05:06:52;40.63;;;18.30;;
6282;SDS011;3174;53.486;9.568;2022-12-01T05:09:22;40.77;;;18.60;;
6282;SDS011;3174;53.486;9.568;2022-12-01T05:11:50;44.17;;;18.97;;
6282;SDS011;3174;53.486;9.568;2022-12-01T05:14:18;38.60;;;18.67;;
6282;SDS011;3174;53.486;9.568;2022-12-01T05:16:46;44.20;;;18.53;;
6282;SDS011;3174;53.486;9.568;2022-12-01T05:19:14;42.03;;;18.77;;
6282;SDS011;3174;53.486;9.568;2022-12-01T05:21:59;41.97;;;17.43;;
6282;SDS011;3174;53.486;9.568;2022-12-01T05:24:29;40.57;;;18.77;;
6282;SDS011;3174;53.486;9.568;2022-12-01T05:26:57;39.40;;;17.80;;
6282;SDS011;3174;53.486;9.568;2022-12-01T05:29:24;52.03;;;22.40;;
6282;SDS011;3174;53.486;9.568;2022-12-01T05:31:52;42.43;;;18.67;;
6282;SDS011;3174;53.486;9.568;2022-12-01T05:34:20;40.63;;;17.97;;
6282;SDS011;3174;53.486;9.568;2022-12-01T05:36:48;37.90;;;17.73;;
6282;SDS011;3174;53.486;9.568;2022-12-01T05:39:16;43.63;;;18.37;;
6282;SDS011;3174;53.486;9.568;2022-12-01T05:41:46;44.67;;;18.50;;
6282;SDS011;3174;53.486;9.568;2022-12-01T05:44:13;46.53;;;20.40;;
6282;SDS011;3174;53.486;9.568;2022-12-01T05:46:41;44.30;;;19.77;;
6282;SDS011;3174;53.486;9.568;2022-12-01T05:49:09;39.30;;;17.87;;
6282;SDS011;3174;53.486;9.568;2022-12-01T05:51:37;38.97;;;18.07;;
6282;SDS011;3174;53.486;9.568;2022-12-01T05:54:05;44.47;;;18.80;;
6282;SDS011;3174;53.486;9.568;2022-12-01T05:56:33;42.43;;;17.83;;
6282;SDS011;3174;53.486;9.568;2022-12-01T05:59:02;47.57;;;19.40;;
6282;SDS011;3174;53.486;9.568;2022-12-01T06:01:30;43.73;;;18.27;;
6282;SDS011;3174;53.486;9.568;2022-12-01T06:03:58;40.13;;;18.53;;
6282;SDS011;3174;53.486;9.568;2022-12-01T06:06:26;39.47;;;18.20;;
6282;SDS011;3174;53.486;9.568;2022-12-01T06:08:54;41.23;;;18.03;;
6282;SDS011;3174;53.486;9.568;2022-12-01T06:11:22;40.37;;;18.53;;
6282;SDS011;3174;53.486;9.568;2022-12-01T06:13:50;42.07;;;19.40;;
6282;SDS011;3174;53.486;9.568;2022-12-01T06:16:19;48.30;;;20.93;;
6282;SDS011;3174;53.486;9.568;2022-12-01T06:18:47;43.40;;;17.70;;
6282;SDS011;3174;53.486;9.568;2022-12-01T06:21:15;41.23;;;18.20;;
6282;SDS011;3174;53.486;9.568;2022-12-01T06:23:43;43.77;;;18.93;;
6282;SDS011;3174;53.486;9.568;2022-12-01T06:26:11;51.97;;;21.10;;
6282;SDS011;3174;53.486;9.568;2022-12-01T06:28:39;42.60;;;18.17;;
6282;SDS011;3174;53.486;9.568;2022-12-01T06:31:07;52.13;;;21.03;;
6282;SDS011;3174;53.486;9.568;2022-12-01T06:33:36;40.80;;;18.50;;
6282;SDS011;3174;53.486;9.568;2022-12-01T06:36:05;51.50;;;20.70;;
6282;SDS011;3174;53.486;9.568;2022-12-01T06:38:34;45.40;;;18.93;;
6282;SDS011;3174;53.486;9.568;2022-12-01T06:41:02;51.73;;;21.50;;
6282;SDS011;3174;53.486;9.568;2022-12-01T06:43:31;45.17;;;18.73;;
6282;SDS011;3174;53.486;9.568;2022-12-01T06:46:02;43.43;;;19.87;;
6282;SDS011;3174;53.486;9.568;2022-12-01T06:48:30;47.23;;;19.40;;
6282;SDS011;3174;53.486;9.568;2022-12-01T06:51:01;41.57;;;18.47;;
6282;SDS011;3174;53.486;9.568;2022-12-01T06:53:29;46.43;;;19.60;;
6282;SDS011;3174;53.486;9.568;2022-12-01T06:55:58;40.67;;;18.13;;
6282;SDS011;3174;53.486;9.568;2022-12-01T06:58:27;51.37;;;19.53;;
6282;SDS011;3174;53.486;9.568;2022-12-01T07:00:56;47.93;;;19.23;;
6282;SDS011;3174;53.486;9.568;2022-12-01T07:03:24;52.37;;;20.30;;
6282;SDS011;3174;53.486;9.568;2022-12-01T07:05:56;46.43;;;19.57;;
6282;SDS011;3174;53.486;9.568;2022-12-01T07:08:26;51.10;;;20.03;;
6282;SDS011;3174;53.486;9.568;2022-12-01T07:10:56;42.60;;;19.13;;
6282;SDS011;3174;53.486;9.568;2022-12-01T07:13:24;43.10;;;18.73;;
6282;SDS011;3174;53.486;9.568;2022-12-01T07:15:59;44.27;;;19.53;;
6282;SDS011;3174;53.486;9.568;2022-12-01T07:18:27;43.97;;;17.80;;
6282;SDS011;3174;53.486;9.568;2022-12-01T07:20:57;47.13;;;18.80;;
6282;SDS011;3174;53.486;9.568;2022-12-01T07:23:28;44.40;;;17.80;;
6282;SDS011;3174;53.486;9.568;2022-12-01T07:25:59;43.63;;;19.20;;
6282;SDS011;3174;53.486;9.568;2022-12-01T07:28:28;39.83;;;17.30;;
6282;SDS011;3174;53.486;9.568;2022-12-01T07:31:00;43.10;;;18.13;;
6282;SDS011;3174;53.486;9.568;2022-12-01T07:33:29;47.03;;;18.50;;
6282;SDS011;3174;53.486;9.568;2022-12-01T07:35:57;39.50;;;17.47;;
6282;SDS011;3174;53.486;9.568;2022-12-01T07:38:27;51.30;;;17.93;;
6282;SDS011;3174;53.486;9.568;2022-12-01T07:41:00;41.37;;;17.17;;
6282;SDS011;3174;53.486;9.568;2022-12-01T07:43:29;38.20;;;17.73;;
6282;SDS011;3174;53.486;9.568;2022-12-01T07:46:01;50.23;;;18.50;;
6282;SDS011;3174;53.486;9.568;2022-12-01T07:48:30;39.80;;;18.47;;
6282;SDS011;3174;53.486;9.568;2022-12-01T07:50:58;44.97;;;19.00;;
6282;SDS011;3174;53.486;9.568;2022-12-01T07:53:28;43.10;;;17.93;;
6282;SDS011;3174;53.486;9.568;2022-12-01T07:55:56;38.37;;;17.07;;
6282;SDS011;3174;53.486;9.568;2022-12-01T07:58:28;41.00;;;17.80;;
6282;SDS011;3174;53.486;9.568;2022-12-01T08:00:56;41.73;;;18.10;;
6282;SDS011;3174;53.486;9.568;2022-12-01T08:03:25;46.13;;;17.70;;
6282;SDS011;3174;53.486;9.568;2022-12-01T08:05:56;40.63;;;18.77;;
6282;SDS011;3174;53.486;9.568;2022-12-01T08:08:24;45.43;;;18.50;;
6282;SDS011;3174;53.486;9.568;2022-12-01T08:10:57;42.57;;;17.93;;
6282;SDS011;3174;53.486;9.568;2022-12-01T08:13:26;48.30;;;18.30;;
6282;SDS011;3174;53.486;9.568;2022-12-01T08:15:54;39.73;;;17.50;;
6282;SDS011;3174;53.486;9.568;2022-12-01T08:18:22;44.83;;;17.33;;
6282;SDS011;3174;53.486;9.568;2022-12-01T08:20:50;41.90;;;18.20;;
6282;SDS011;3174;53.486;9.568;2022-12-01T08:23:23;44.93;;;18.27;;
6282;SDS011;3174;53.486;9.568;2022-12-01T08:25:51;44.20;;;17.97;;
6282;SDS011;3174;53.486;9.568;2022-12-01T08:28:20;40.57;;;17.47;;
6282;SDS011;3174;53.486;9.568;2022-12-01T08:30:49;44.27;;;18.17;;
6282;SDS011;3174;53.486;9.568;2022-12-01T08:33:17;45.43;;;20.03;;
6282;SDS011;3174;53.486;9.568;2022-12-01T08:35:45;49.57;;;19.70;;
6282;SDS011;3174;53.486;9.568;2022-12-01T08:38:13;47.87;;;19.23;;
6282;SDS011;3174;53.486;9.568;2022-12-01T08:40:41;44.90;;;18.47;;
6282;SDS011;3174;53.486;9.568;2022-12-01T08:43:09;45.17;;;19.50;;
6282;SDS011;3174;53.486;9.568;2022-12-01T08:45:58;46.47;;;18.47;;
6282;SDS011;3174;53.486;9.568;2022-12-01T08:48:27;43.47;;;17.93;;
6282;SDS011;3174;53.486;9.568;2022-12-01T08:51:02;48.30;;;18.90;;
6282;SDS011;3174;53.486;9.568;2022-12-01T08:53:32;45.73;;;19.77;;
6282;SDS011;3174;53.486;9.568;2022-12-01T08:56:01;44.67;;;19.20;;
6282;SDS011;3174;53.486;9.568;2022-12-01T08:58:29;46.60;;;17.70;;
6282;SDS011;3174;53.486;9.568;2022-12-01T09:01:02;49.80;;;18.50;;
6282;SDS011;3174;53.486;9.568;2022-12-01T09:03:33;43.57;;;18.67;;
6282;SDS011;3174;53.486;9.568;2022-12-01T09:06:02;49.40;;;18.97;;
6282;SDS011;3174;53.486;9.568;2022-12-01T09:08:31;47.33;;;18.77;;
6282;SDS011;3174;53.486;9.568;2022-12-01T09:11:00;48.17;;;19.03;;
6282;SDS011;3174;53.486;9.568;2022-12-01T09:13:30;46.40;;;18.20;;
6282;SDS011;3174;53.486;9.568;2022-12-01T09:15:59;41.77;;;17.90;;
6282;SDS011;3174;53.486;9.568;2022-12-01T09:18:29;45.70;;;18.73;;
6282;SDS011;3174;53.486;9.568;2022-12-01T09:20:57;41.63;;;18.73;;
6282;SDS011;3174;53.486;9.568;2022-12-01T09:23:25;45.97;;;19.67;;
6282;SDS011;3174;53.486;9.568;2022-12-01T09:25:53;43.53;;;20.03;;
6282;SDS011;3174;53.486;9.568;2022-12-01T09:28:21;45.47;;;19.07;;
6282;SDS011;3174;53.486;9.568;2022-12-01T09:30:50;56.33;;;21.83;;
6282;SDS011;3174;53.486;9.568;2022-12-01T09:33:18;46.67;;;18.77;;
6282;SDS011;3174;53.486;9.568;2022-12-01T09:35:47;51.10;;;19.90;;
6282;SDS011;3174;53.486;9.568;2022-12-01T09:38:15;38.60;;;17.80;;
6282;SDS011;3174;53.486;9.568;2022-12-01T09:40:43;47.87;;;20.30;;
6282;SDS011;3174;53.486;9.568;2022-12-01T09:43:12;43.53;;;18.70;;
6282;SDS011;3174;53.486;9.568;2022-12-01T09:45:42;41.37;;;18.23;;
6282;SDS011;3174;53.486;9.568;2022-12-01T09:48:17;44.93;;;18.40;;
6282;SDS011;3174;53.486;9.568;2022-12-01T09:50:52;56.73;;;20.97;;
6282;SDS011;3174;53.486;9.568;2022-12-01T09:53:21;44.97;;;19.20;;
6282;SDS011;3174;53.486;9.568;2022-12-01T09:55:51;51.97;;;20.57;;
6282;SDS011;3174;53.486;9.568;2022-12-01T09:58:27;59.57;;;22.30;;
6282;SDS011;3174;53.486;9.568;2022-12-01T10:00:56;49.67;;;19.40;;
6282;SDS011;3174;53.486;9.568;2022-12-01T10:03:27;50.50;;;18.63;;
6282;SDS011;3174;53.486;9.568;2022-12-01T10:06:01;46.13;;;18.67;;
6282;SDS011;3174;53.486;9.568;2022-12-01T10:08:54;50.40;;;21.97;;
6282;SDS011;3174;53.486;9.568;2022-12-01T10:11:40;47.47;;;19.23;;
6282;SDS011;3174;53.486;9.568;2022-12-01T10:14:11;46.57;;;19.27;;
6282;SDS011;3174;53.486;9.568;2022-12-01T10:16:47;48.33;;;17.63;;
6282;SDS011;3174;53.486;9.568;2022-12-01T10:19:21;50.33;;;18.60;;
6282;SDS011;3174;53.486;9.568;2022-12-01T10:21:56;44.33;;;18.70;;
6282;SDS011;3174;53.486;9.568;2022-12-01T10:24:34;49.63;;;19.53;;
6282;SDS011;3174;53.486;9.568;2022-12-01T10:27:12;49.67;;;21.57;;
6282;SDS011;3174;53.486;9.568;2022-12-01T10:29:47;43.03;;;18.47;;
6282;SDS011;3174;53.486;9.568;2022-12-01T10:32:17;45.77;;;18.47;;
6282;SDS011;3174;53.486;9.568;2022-12-01T10:34:46;48.40;;;18.57;;
6282;SDS011;3174;53.486;9.568;2022-12-01T10:37:17;48.23;;;20.10;;
6282;SDS011;3174;53.486;9.568;2022-12-01T10:39:47;47.87;;;18.57;;
6282;SDS011;3174;53.486;9.568;2022-12-01T10:42:20;45.70;;;19.03;;
6282;SDS011;3174;53.486;9.568;2022-12-01T10:44:55;42.00;;;18.10;;
6282;SDS011;3174;53.486;9.568;2022-12-01T10:47:24;47.27;;;18.40;;
6282;SDS011;3174;53.486;9.568;2022-12-01T10:49:53;46.47;;;18.30;;
6282;SDS011;3174;53.486;9.568;2022-12-01T10:52:30;48.30;;;19.90;;
6282;SDS011;3174;53.486;9.568;2022-12-01T10:54:59;46.43;;;18.70;;
6282;SDS011;3174;53.486;9.568;2022-12-01T10:57:28;53.80;;;20.03;;
6282;SDS011;3174;53.486;9.568;2022-12-01T10:59:58;49.83;;;18.37;;
6282;SDS011;3174;53.486;9.568;2022-12-01T11:02:28;40.87;;;18.07;;
6282;SDS011;3174;53.486;9.568;2022-12-01T11:04:58;46.60;;;17.10;;
6282;SDS011;3174;53.486;9.568;2022-12-01T11:07:29;49.33;;;18.47;;
6282;SDS011;3174;53.486;9.568;2022-12-01T11:10:03;43.90;;;17.47;;
6282;SDS011;3174;53.486;9.568;2022-12-01T11:12:38;45.30;;;18.63;;
6282;SDS011;3174;53.486;9.568;2022-12-01T11:15:07;45.30;;;18.73;;
6282;SDS011;3174;53.486;9.568;2022-12-01T11:17:43;47.87;;;19.50;;
6282;SDS011;3174;53.486;9.568;2022-12-01T11:20:26;43.93;;;17.23;;
6282;SDS011;3174;53.486;9.568;2022-12-01T11:26:00;41.93;;;16.10;;
6282;SDS011;3174;53.486;9.568;2022-12-01T11:28:30;38.47;;;15.27;;
6282;SDS011;3174;53.486;9.568;2022-12-01T11:31:00;39.47;;;15.90;;
6282;SDS011;3174;53.486;9.568;2022-12-01T11:33:29;38.33;;;15.20;;
6282;SDS011;3174;53.486;9.568;2022-12-01T11:36:09;39.27;;;16.07;;
6282;SDS011;3174;53.486;9.568;2022-12-01T11:38:43;37.67;;;15.27;;
6282;SDS011;3174;53.486;9.568;2022-12-01T11:41:19;37.00;;;15.70;;
6282;SDS011;3174;53.486;9.568;2022-12-01T11:43:51;36.43;;;14.20;;
6282;SDS011;3174;53.486;9.568;2022-12-01T11:46:28;38.17;;;15.20;;
6282;SDS011;3174;53.486;9.568;2022-12-01T11:48:58;34.17;;;14.13;;
6282;SDS011;3174;53.486;9.568;2022-12-01T11:51:27;32.80;;;14.77;;
6282;SDS011;3174;53.486;9.568;2022-12-01T11:54:10;38.47;;;15.60;;
6282;SDS011;3174;53.486;9.568;2022-12-01T11:56:41;37.63;;;14.00;;
6282;SDS011;3174;53.486;9.568;2022-12-01T11:59:11;33.90;;;13.60;;
6282;SDS011;3174;53.486;9.568;2022-12-01T12:01:45;35.67;;;14.63;;
6282;SDS011;3174;53.486;9.568;2022-12-01T12:04:21;30.83;;;12.67;;
6282;SDS011;3174;53.486;9.568;2022-12-01T12:06:56;31.00;;;13.33;;
6282;SDS011;3174;53.486;9.568;2022-12-01T12:09:34;37.70;;;13.97;;
6282;SDS011;3174;53.486;9.568;2022-12-01T12:12:16;30.40;;;12.83;;
6282;SDS011;3174;53.486;9.568;2022-12-01T12:14:52;34.13;;;12.90;;
6282;SDS011;3174;53.486;9.568;2022-12-01T12:17:28;31.37;;;12.57;;
6282;SDS011;3174;53.486;9.568;2022-12-01T12:23:17;37.20;;;13.50;;
6282;SDS011;3174;53.486;9.568;2022-12-01T12:25:58;36.73;;;14.27;;
6282;SDS011;3174;53.486;9.568;2022-12-01T12:28:36;36.30;;;14.20;;
6282;SDS011;3174;53.486;9.568;2022-12-01T12:31:10;35.97;;;13.70;;
6282;SDS011;3174;53.486;9.568;2022-12-01T12:33:50;36.80;;;13.17;;
6282;SDS011;3174;53.486;9.568;2022-12-01T12:36:29;43.97;;;15.67;;
6282;SDS011;3174;53.486;9.568;2022-12-01T12:39:05;44.00;;;15.63;;
6282;SDS011;3174;53.486;9.568;2022-12-01T12:41:44;37.23;;;13.07;;
6282;SDS011;3174;53.486;9.568;2022-12-01T12:44:18;37.43;;;13.53;;
6282;SDS011;3174;53.486;9.568;2022-12-01T12:47:05;32.73;;;12.87;;
6282;SDS011;3174;53.486;9.568;2022-12-01T12:49:44;37.00;;;13.53;;
6282;SDS011;3174;53.486;9.568;2022-12-01T12:52:18;36.03;;;13.40;;
6282;SDS011;3174;53.486;9.568;2022-12-01T12:54:50;33.13;;;12.00;;
6282;SDS011;3174;53.486;9.568;2022-12-01T12:57:23;37.43;;;13.57;;
6282;SDS011;3174;53.486;9.568;2022-12-01T12:59:54;34.73;;;12.53;;
6282;SDS011;3174;53.486;9.568;2022-12-01T13:02:25;31.80;;;12.17;;
6282;SDS011;3174;53.486;9.568;2022-12-01T13:04:59;39.87;;;13.27;;
6282;SDS011;3174;53.486;9.568;2022-12-01T13:07:35;26.47;;;10.53;;
6282;SDS011;3174;53.486;9.568;2022-12-01T13:10:07;29.83;;;12.03;;
6282;SDS011;3174;53.486;9.568;2022-12-01T13:12:42;28.13;;;11.80;;
6282;SDS011;3174;53.486;9.568;2022-12-01T13:15:14;32.80;;;12.10;;
6282;SDS011;3174;53.486;9.568;2022-12-01T13:17:42;35.43;;;11.93;;
6282;SDS011;3174;53.486;9.568;2022-12-01T13:20:12;29.57;;;12.03;;
6282;SDS011;3174;53.486;9.568;2022-12-01T13:22:40;34.13;;;11.13;;
6282;SDS011;3174;53.486;9.568;2022-12-01T13:25:10;32.10;;;10.93;;
6282;SDS011;3174;53.486;9.568;2022-12-01T13:27:41;31.60;;;12.47;;
6282;SDS011;3174;53.486;9.568;2022-12-01T13:30:17;56.97;;;16.97;;
6282;SDS011;3174;53.486;9.568;2022-12-01T13:32:46;35.10;;;12.57;;
6282;SDS011;3174;53.486;9.568;2022-12-01T13:35:20;35.47;;;12.40;;
6282;SDS011;3174;53.486;9.568;2022-12-01T13:37:50;42.33;;;13.50;;
6282;SDS011;3174;53.486;9.568;2022-12-01T13:40:19;30.33;;;11.97;;
6282;SDS011;3174;53.486;9.568;2022-12-01T13:42:55;40.53;;;13.60;;
6282;SDS011;3174;53.486;9.568;2022-12-01T13:45:24;43.23;;;13.67;;
6282;SDS011;3174;53.486;9.568;2022-12-01T13:47:56;51.57;;;14.83;;
6282;SDS011;3174;53.486;9.568;2022-12-01T13:53:25;39.90;;;14.10;;
6282;SDS011;3174;53.486;9.568;2022-12-01T13:55:56;42.40;;;14.13;;
6282;SDS011;3174;53.486;9.568;2022-12-01T13:58:41;40.87;;;13.47;;
6282;SDS011;3174;53.486;9.568;2022-12-01T14:04:28;48.13;;;14.43;;
6282;SDS011;3174;53.486;9.568;2022-12-01T14:09:50;40.17;;;13.53;;
6282;SDS011;3174;53.486;9.568;2022-12-01T14:12:20;42.80;;;14.77;;
6282;SDS011;3174;53.486;9.568;2022-12-01T14:14:52;42.20;;;14.03;;
6282;SDS011;3174;53.486;9.568;2022-12-01T14:17:23;47.47;;;14.83;;
6282;SDS011;3174;53.486;9.568;2022-12-01T14:19:53;41.90;;;15.43;;
6282;SDS011;3174;53.486;9.568;2022-12-01T14:22:31;41.80;;;14.77;;
6282;SDS011;3174;53.486;9.568;2022-12-01T14:25:00;43.60;;;14.43;;
6282;SDS011;3174;53.486;9.568;2022-12-01T14:27:32;41.00;;;13.97;;
6282;SDS011;3174;53.486;9.568;2022-12-01T14:36:16;39.57;;;13.33;;
6282;SDS011;3174;53.486;9.568;2022-12-01T14:38:50;36.50;;;13.00;;
6282;SDS011;3174;53.486;9.568;2022-12-01T14:41:20;40.33;;;13.93;;
6282;SDS011;3174;53.486;9.568;2022-12-01T14:43:50;44.00;;;14.10;;
6282;SDS011;3174;53.486;9.568;2022-12-01T14:46:34;38.03;;;13.73;;
6282;SDS011;3174;53.486;9.568;2022-12-01T14:49:09;39.83;;;13.87;;
6282;SDS011;3174;53.486;9.568;2022-12-01T14:51:42;44.67;;;13.70;;
6282;SDS011;3174;53.486;9.568;2022-12-01T14:54:17;38.67;;;13.77;;
6282;SDS011;3174;53.486;9.568;2022-12-01T14:56:48;38.00;;;13.73;;
6282;SDS011;3174;53.486;9.568;2022-12-01T14:59:19;39.60;;;13.23;;
6282;SDS011;3174;53.486;9.568;2022-12-01T15:01:52;36.17;;;13.27;;
6282;SDS011;3174;53.486;9.568;2022-12-01T15:04:22;36.83;;;14.07;;
6282;SDS011;3174;53.486;9.568;2022-12-01T15:06:54;31.80;;;12.03;;
6282;SDS011;3174;53.486;9.568;2022-12-01T15:09:23;34.73;;;13.10;;
6282;SDS011;3174;53.486;9.568;2022-12-01T15:12:01;34.63;;;12.50;;
6282;SDS011;3174;53.486;9.568;2022-12-01T15:14:33;37.43;;;13.07;;
6282;SDS011;3174;53.486;9.568;2022-12-01T15:17:03;40.40;;;14.30;;
6282;SDS011;3174;53.486;9.568;2022-12-01T15:19:33;35.90;;;12.73;;
6282;SDS011;3174;53.486;9.568;2022-12-01T15:22:05;35.20;;;13.17;;
6282;SDS011;3174;53.486;9.568;2022-12-01T15:24:36;35.47;;;12.23;;
6282;SDS011;3174;53.486;9.568;2022-12-01T15:27:19;30.10;;;12.27;;
6282;SDS011;3174;53.486;9.568;2022-12-01T15:29:50;37.27;;;12.53;;
6282;SDS011;3174;53.486;9.568;2022-12-01T15:32:18;31.03;;;12.70;;
6282;SDS011;3174;53.486;9.568;2022-12-01T15:34:49;31.57;;;12.20;;
6282;SDS011;3174;53.486;9.568;2022-12-01T15:37:20;26.10;;;10.80;;